createdAt,value
2022-08-25T00:00:15.355Z,100821.60
2022-08-25T00:03:03.498Z,100816.40
2022-08-25T00:05:33.394Z,100809.80
2022-08-25T00:08:06.497Z,100813.60
2022-08-25T00:10:39.369Z,100808.60
2022-08-25T00:13:07.799Z,100807.60
2022-08-25T00:15:38.910Z,100806.80
2022-08-25T00:18:11.538Z,100804.00
2022-08-25T00:20:49.342Z,100796.60
2022-08-25T00:23:18.967Z,100796.20
2022-08-25T00:25:47.673Z,100799.40
2022-08-25T00:28:16.866Z,100794.80
2022-08-25T00:30:45.139Z,100795.60
2022-08-25T00:33:13.988Z,100794.00
2022-08-25T00:35:43.141Z,100797.80
2022-08-25T00:38:12.741Z,100794.60
2022-08-25T00:40:44.408Z,100789.00
2022-08-25T00:43:12.704Z,100783.60
2022-08-25T00:45:40.682Z,100780.80
2022-08-25T00:48:08.751Z,100777.20
2022-08-25T00:50:36.743Z,100782.00
2022-08-25T00:53:05.943Z,100782.60
2022-08-25T00:55:39.331Z,100784.80
2022-08-25T00:58:16.409Z,100782.00
2022-08-25T01:00:50.544Z,100781.80
2022-08-25T01:03:20.041Z,100782.80
2022-08-25T01:05:48.827Z,100783.60
2022-08-25T01:08:24.311Z,100787.40
2022-08-25T01:10:56.949Z,100792.60
2022-08-25T01:13:40.926Z,100785.00
2022-08-25T01:16:09.424Z,100784.00
2022-08-25T01:18:58.147Z,100781.80
2022-08-25T01:21:29.464Z,100789.20
2022-08-25T01:24:00.417Z,100789.60
2022-08-25T01:26:33.646Z,100796.20
2022-08-25T01:29:26.835Z,100796.60
2022-08-25T01:32:00.229Z,100793.20
2022-08-25T01:34:33.142Z,100784.40
2022-08-25T01:37:01.514Z,100780.80
2022-08-25T01:39:33.925Z,100761.40
2022-08-25T01:42:09.214Z,100750.80
2022-08-25T01:44:46.974Z,100755.40
2022-08-25T01:47:16.057Z,100756.20
2022-08-25T01:49:44.303Z,100756.20
2022-08-25T01:52:19.529Z,100760.80
2022-08-25T01:54:49.270Z,100754.80
2022-08-25T01:57:17.439Z,100750.80
2022-08-25T01:59:46.016Z,100753.60
2022-08-25T02:02:14.200Z,100749.20
2022-08-25T02:04:44.494Z,100758.40
2022-08-25T02:07:12.557Z,100754.80
2022-08-25T02:09:40.911Z,100746.60
2022-08-25T02:12:09.764Z,100746.60
2022-08-25T02:14:38.049Z,100740.00
2022-08-25T02:17:06.706Z,100744.20
2022-08-25T02:19:34.596Z,100749.00
2022-08-25T02:22:02.695Z,100761.80
2022-08-25T02:24:30.900Z,100760.00
2022-08-25T02:26:59.409Z,100762.00
2022-08-25T02:29:27.290Z,100762.40
2022-08-25T02:31:55.084Z,100768.60
2022-08-25T02:34:23.331Z,100760.40
2022-08-25T02:36:51.402Z,100754.40
2022-08-25T02:39:19.180Z,100753.40
2022-08-25T02:41:46.974Z,100750.00
2022-08-25T02:44:16.244Z,100749.60
2022-08-25T02:46:43.924Z,100747.00
2022-08-25T02:49:11.705Z,100754.40
2022-08-25T02:51:39.432Z,100753.00
2022-08-25T02:54:07.285Z,100747.60
2022-08-25T02:56:35.228Z,100745.20
2022-08-25T02:59:03.537Z,100745.80
2022-08-25T03:01:32.686Z,100750.00
2022-08-25T03:04:02.367Z,100754.60
2022-08-25T03:06:30.695Z,100752.60
2022-08-25T03:08:59.322Z,100745.00
2022-08-25T03:11:27.678Z,100738.40
2022-08-25T03:13:56.430Z,100734.20
2022-08-25T03:16:27.899Z,100726.40
2022-08-25T03:18:57.025Z,100729.20
2022-08-25T03:21:27.066Z,100736.60
2022-08-25T03:23:56.651Z,100729.40
2022-08-25T03:26:43.495Z,100727.60
2022-08-25T03:29:11.506Z,100724.40
2022-08-25T03:31:40.193Z,100720.40
2022-08-25T03:34:08.006Z,100712.00
2022-08-25T03:36:36.012Z,100701.80
2022-08-25T03:39:05.209Z,100692.80
2022-08-25T03:41:33.079Z,100697.40
2022-08-25T03:44:03.995Z,100699.60
2022-08-25T03:46:40.017Z,100694.20
2022-08-25T03:49:12.681Z,100689.80
2022-08-25T03:51:46.927Z,100693.20
2022-08-25T03:54:19.335Z,100686.40
2022-08-25T03:56:47.081Z,100685.20
2022-08-25T03:59:15.396Z,100684.80
2022-08-25T04:01:48.375Z,100688.00
2022-08-25T04:04:18.441Z,100693.40
2022-08-25T04:06:47.248Z,100706.00
2022-08-25T04:09:14.990Z,100716.60
2022-08-25T04:11:42.861Z,100720.20
2022-08-25T04:14:13.773Z,100728.60
2022-08-25T04:16:45.568Z,100734.80
2022-08-25T04:19:14.332Z,100729.00
2022-08-25T04:21:42.951Z,100730.60
2022-08-25T04:24:13.125Z,100737.40
2022-08-25T04:26:46.804Z,100745.60
2022-08-25T04:29:19.745Z,100743.00
2022-08-25T04:31:54.419Z,100741.60
2022-08-25T04:34:29.918Z,100739.80
2022-08-25T04:37:03.406Z,100745.40
2022-08-25T04:39:31.805Z,100754.00
2022-08-25T04:42:00.940Z,100750.80
2022-08-25T04:44:30.921Z,100746.20
2022-08-25T04:47:00.097Z,100739.20
2022-08-25T04:49:28.707Z,100728.40
2022-08-25T04:51:57.428Z,100717.40
2022-08-25T04:54:25.558Z,100712.60
2022-08-25T04:56:54.590Z,100705.80
2022-08-25T04:59:30.399Z,100706.00
2022-08-25T05:02:03.237Z,100711.60
2022-08-25T05:04:35.974Z,100725.40
2022-08-25T05:07:04.604Z,100739.20
2022-08-25T05:09:33.300Z,100743.80
2022-08-25T05:12:03.130Z,100741.40
2022-08-25T05:14:32.556Z,100736.00
2022-08-25T05:17:01.385Z,100739.40
2022-08-25T05:19:29.932Z,100743.80
2022-08-25T05:21:58.301Z,100741.40
2022-08-25T05:24:27.971Z,100747.00
2022-08-25T05:26:57.067Z,100754.20
2022-08-25T05:29:24.920Z,100769.20
2022-08-25T05:31:53.921Z,100784.20
2022-08-25T05:34:22.260Z,100799.20
2022-08-25T05:36:49.934Z,100804.60
2022-08-25T05:39:17.947Z,100814.00
2022-08-25T05:41:45.768Z,100819.40
2022-08-25T05:44:15.911Z,100823.80
2022-08-25T05:46:45.807Z,100824.60
2022-08-25T05:49:13.575Z,100821.20
2022-08-25T05:51:41.369Z,100812.40
2022-08-25T05:54:09.121Z,100807.80
2022-08-25T05:56:36.946Z,100805.00
2022-08-25T05:59:09.143Z,100803.80
2022-08-25T06:01:56.067Z,100802.00
2022-08-25T06:04:24.419Z,100806.20
2022-08-25T06:06:54.776Z,100808.60
2022-08-25T06:09:22.874Z,100805.60
2022-08-25T06:11:54.747Z,100797.00
2022-08-25T06:14:24.684Z,100786.00
2022-08-25T06:16:53.551Z,100777.40
2022-08-25T06:19:23.455Z,100766.80
2022-08-25T06:21:55.486Z,100765.80
2022-08-25T06:24:27.353Z,100764.00
2022-08-25T06:26:56.808Z,100765.60
2022-08-25T06:29:25.386Z,100762.80
2022-08-25T06:31:53.403Z,100758.40
2022-08-25T06:34:24.197Z,100755.00
2022-08-25T06:36:54.498Z,100752.60
2022-08-25T06:39:24.305Z,100756.80
2022-08-25T06:41:56.536Z,100758.20
2022-08-25T06:44:29.263Z,100750.00
2022-08-25T06:46:57.470Z,100755.40
2022-08-25T06:49:31.884Z,100751.60
2022-08-25T06:52:02.749Z,100746.20
2022-08-25T06:54:30.514Z,100750.00
2022-08-25T06:56:58.403Z,100755.20
2022-08-25T06:59:32.278Z,100758.00
2022-08-25T07:02:03.729Z,100766.80
2022-08-25T07:04:33.114Z,100776.60
2022-08-25T07:07:01.384Z,100785.20
2022-08-25T07:09:29.549Z,100798.60
2022-08-25T07:11:57.453Z,100809.20
2022-08-25T07:14:25.447Z,100815.60
2022-08-25T07:16:53.211Z,100812.80
2022-08-25T07:19:21.305Z,100814.20
2022-08-25T07:21:54.244Z,100818.60
2022-08-25T07:24:25.994Z,100822.80
2022-08-25T07:26:53.750Z,100825.60
2022-08-25T07:29:32.917Z,100823.40
2022-08-25T07:32:05.278Z,100824.40
2022-08-25T07:34:52.801Z,100819.40
2022-08-25T07:37:47.493Z,100820.60
2022-08-25T07:40:17.890Z,100820.80
2022-08-25T07:42:46.021Z,100822.20
2022-08-25T07:45:17.281Z,100816.60
2022-08-25T07:47:51.887Z,100807.60
2022-08-25T07:50:20.498Z,100796.40
2022-08-25T07:52:52.266Z,100800.20
2022-08-25T07:55:27.136Z,100793.00
2022-08-25T07:57:57.294Z,100773.60
2022-08-25T08:00:29.852Z,100742.20
2022-08-25T08:02:58.536Z,100710.80
2022-08-25T08:05:28.801Z,100714.40
2022-08-25T08:07:57.593Z,100726.80
2022-08-25T08:10:47.815Z,100751.40
2022-08-25T08:13:18.073Z,100795.60
2022-08-25T08:15:47.277Z,100820.80
2022-08-25T08:18:16.249Z,100830.80
2022-08-25T08:20:49.019Z,100834.40
2022-08-25T08:23:17.712Z,100850.20
2022-08-25T08:25:45.470Z,100852.40
2022-08-25T08:28:13.401Z,100843.40
2022-08-25T08:30:53.746Z,100826.80
2022-08-25T08:33:24.304Z,100825.40
2022-08-25T08:36:05.060Z,100835.00
2022-08-25T08:38:35.968Z,100840.40
2022-08-25T08:42:09.507Z,100836.60
2022-08-25T08:44:46.079Z,100831.40
2022-08-25T08:47:19.780Z,100823.80
2022-08-25T08:50:39.923Z,100823.00
2022-08-25T08:53:33.935Z,100809.00
2022-08-25T08:56:11.731Z,100799.20
2022-08-25T08:58:51.875Z,100801.60
2022-08-25T09:01:29.471Z,100798.20
2022-08-25T09:04:35.156Z,100797.40
2022-08-25T09:07:14.319Z,100799.40
2022-08-25T09:09:44.627Z,100802.60
2022-08-25T09:12:33.535Z,100802.00
2022-08-25T09:15:24.881Z,100803.20
2022-08-25T09:18:31.532Z,100806.00
2022-08-25T09:21:38.583Z,100805.00
2022-08-25T09:24:12.165Z,100805.00
2022-08-25T09:27:14.361Z,100808.60
2022-08-25T09:30:10.107Z,100806.60
2022-08-25T09:32:52.255Z,100810.00
2022-08-25T09:35:27.292Z,100818.40
2022-08-25T09:38:09.238Z,100825.00
2022-08-25T09:40:48.726Z,100835.20
2022-08-25T09:43:24.454Z,100846.00
2022-08-25T09:46:01.729Z,100849.80
2022-08-25T09:48:56.673Z,100839.20
2022-08-25T09:51:37.984Z,100842.00
2022-08-25T09:54:19.977Z,100842.80
2022-08-25T09:56:57.089Z,100836.00
2022-08-25T09:59:36.965Z,100829.40
2022-08-25T10:02:28.613Z,100823.20
2022-08-25T10:04:57.169Z,100813.60
2022-08-25T10:07:52.099Z,100814.60
2022-08-25T10:10:32.280Z,100811.80
2022-08-25T10:13:03.462Z,100810.40
2022-08-25T10:15:38.704Z,100802.80
2022-08-25T10:18:15.709Z,100800.20
2022-08-25T10:21:03.140Z,100786.80
2022-08-25T10:23:34.427Z,100781.40
2022-08-25T10:26:11.777Z,100778.20
2022-08-25T10:29:15.818Z,100770.40
2022-08-25T10:31:57.960Z,100760.80
2022-08-25T10:34:37.387Z,100747.80
2022-08-25T10:37:55.337Z,100735.80
2022-08-25T10:40:46.159Z,100717.00
2022-08-25T10:43:43.825Z,100710.20
2022-08-25T10:46:39.519Z,100698.80
2022-08-25T10:49:20.376Z,100699.00
2022-08-25T10:52:18.965Z,100707.80
2022-08-25T10:55:12.422Z,100714.20
2022-08-25T10:58:14.882Z,100728.80
2022-08-25T11:01:44.452Z,100753.40
2022-08-25T11:04:47.167Z,100783.00
2022-08-25T11:07:36.549Z,100787.00
2022-08-25T11:10:16.019Z,100778.40
2022-08-25T11:13:11.228Z,100780.60
2022-08-25T11:16:15.528Z,100796.20
2022-08-25T11:18:55.732Z,100811.80
2022-08-25T11:21:40.569Z,100825.80
2022-08-25T11:24:43.726Z,100836.40
2022-08-25T11:27:22.808Z,100837.60
2022-08-25T11:30:07.090Z,100829.00
2022-08-25T11:32:37.866Z,100825.80
2022-08-25T11:35:12.144Z,100830.60
2022-08-25T11:38:04.658Z,100828.20
2022-08-25T11:41:15.301Z,100827.40
2022-08-25T11:43:48.930Z,100827.80
2022-08-25T11:46:30.357Z,100826.40
2022-08-25T11:49:39.135Z,100821.80
2022-08-25T11:52:32.836Z,100823.20
2022-08-25T11:55:14.257Z,100819.60
2022-08-25T11:57:48.724Z,100826.40
2022-08-25T12:00:41.572Z,100831.20
2022-08-25T12:03:36.934Z,100825.80
2022-08-25T12:06:25.213Z,100819.00
2022-08-25T12:09:07.780Z,100819.60
2022-08-25T12:11:53.773Z,100811.60
2022-08-25T12:14:28.174Z,100802.80
2022-08-25T12:16:56.551Z,100809.00
2022-08-25T12:19:35.559Z,100807.20
2022-08-25T12:22:04.095Z,100803.20
2022-08-25T12:24:47.584Z,100813.80
2022-08-25T12:27:26.787Z,100828.80
2022-08-25T12:30:06.154Z,100828.80
2022-08-25T12:33:06.100Z,100827.40
2022-08-25T12:36:05.120Z,100827.60
2022-08-25T12:38:52.444Z,100830.60
2022-08-25T12:41:27.432Z,100835.00
2022-08-25T12:44:39.687Z,100834.20
2022-08-25T12:47:32.634Z,100840.20
2022-08-25T12:50:33.483Z,100844.20
2022-08-25T12:53:28.753Z,100849.40
2022-08-25T12:56:29.054Z,100850.40
2022-08-25T12:59:22.491Z,100851.40
2022-08-25T13:02:44.976Z,100854.40
2022-08-25T13:06:08.134Z,100850.80
2022-08-25T13:08:59.585Z,100860.20
2022-08-25T13:11:49.889Z,100855.00
2022-08-25T13:14:43.997Z,100854.20
2022-08-25T13:17:38.817Z,100852.20
2022-08-25T13:20:28.569Z,100853.00
2022-08-25T13:23:01.025Z,100854.80
2022-08-25T13:25:46.091Z,100851.40
2022-08-25T13:28:28.512Z,100852.20
2022-08-25T13:31:02.749Z,100856.80
2022-08-25T13:33:31.069Z,100864.40
2022-08-25T13:36:20.807Z,100862.20
2022-08-25T13:38:50.372Z,100864.40
2022-08-25T13:41:29.177Z,100868.00
2022-08-25T13:44:01.017Z,100874.20
2022-08-25T13:46:31.612Z,100871.80
2022-08-25T13:49:07.081Z,100871.00
2022-08-25T13:51:51.376Z,100876.40
2022-08-25T13:54:30.907Z,100875.60
2022-08-25T13:57:23.452Z,100878.00
2022-08-25T14:00:11.935Z,100878.60
2022-08-25T14:02:53.701Z,100876.40
2022-08-25T14:05:40.950Z,100881.60
2022-08-25T14:08:33.250Z,100883.00
2022-08-25T14:11:15.090Z,100889.20
2022-08-25T14:13:45.426Z,100897.60
2022-08-25T14:16:25.358Z,100890.40
2022-08-25T14:18:58.895Z,100887.20
2022-08-25T14:21:30.661Z,100885.00
2022-08-25T14:23:59.863Z,100882.00
2022-08-25T14:26:27.741Z,100892.80
2022-08-25T14:28:56.062Z,100891.20
2022-08-25T14:31:32.384Z,100896.80
2022-08-25T14:34:12.701Z,100907.80
2022-08-25T14:36:40.929Z,100898.40
2022-08-25T14:39:11.446Z,100902.20
2022-08-25T14:41:43.123Z,100896.40
2022-08-25T14:44:13.783Z,100902.00
2022-08-25T14:46:54.061Z,100904.20
2022-08-25T14:49:32.718Z,100907.60
2022-08-25T14:52:29.765Z,100906.00
2022-08-25T14:54:57.700Z,100914.20
2022-08-25T14:57:26.662Z,100913.80
2022-08-25T14:59:54.798Z,100916.80
2022-08-25T15:02:29.507Z,100923.20
2022-08-25T15:05:06.437Z,100920.00
2022-08-25T15:07:54.213Z,100921.20
2022-08-25T15:10:22.424Z,100916.60
2022-08-25T15:12:54.084Z,100920.20
2022-08-25T15:15:26.320Z,100917.60
2022-08-25T15:17:58.134Z,100921.60
2022-08-25T15:20:29.154Z,100919.20
2022-08-25T15:22:57.125Z,100924.20
2022-08-25T15:25:24.890Z,100921.60
2022-08-25T15:27:53.890Z,100916.80
2022-08-25T15:30:21.954Z,100921.60
2022-08-25T15:32:59.465Z,100922.80
2022-08-25T15:35:29.210Z,100922.80
2022-08-25T15:37:57.189Z,100925.60
2022-08-25T15:40:25.609Z,100927.00
2022-08-25T15:42:53.632Z,100932.00
2022-08-25T15:45:23.758Z,100927.20
2022-08-25T15:47:54.068Z,100927.40
2022-08-25T15:50:26.023Z,100922.80
2022-08-25T15:52:54.066Z,100922.60
2022-08-25T15:55:21.948Z,100932.00
2022-08-25T15:57:50.011Z,100930.80
2022-08-25T16:00:18.551Z,100943.00
2022-08-25T16:02:46.907Z,100938.40
2022-08-25T16:05:16.215Z,100936.40
2022-08-25T16:07:51.475Z,100938.40
2022-08-25T16:10:19.781Z,100938.80
2022-08-25T16:12:47.943Z,100940.20
2022-08-25T16:15:16.143Z,100937.60
2022-08-25T16:17:47.006Z,100935.80
2022-08-25T16:20:17.271Z,100938.00
2022-08-25T16:22:46.438Z,100935.40
2022-08-25T16:25:15.370Z,100942.00
2022-08-25T16:27:45.272Z,100938.80
2022-08-25T16:30:17.741Z,100945.20
2022-08-25T16:32:46.714Z,100943.60
2022-08-25T16:35:14.573Z,100947.00
2022-08-25T16:37:42.763Z,100951.80
2022-08-25T16:40:14.859Z,100947.60
2022-08-25T16:42:42.755Z,100950.20
2022-08-25T16:45:11.817Z,100945.60
2022-08-25T16:47:39.887Z,100947.60
2022-08-25T16:50:11.026Z,100945.00
2022-08-25T16:52:59.434Z,100941.00
2022-08-25T16:55:38.704Z,100940.00
2022-08-25T16:58:12.527Z,100938.20
2022-08-25T17:00:41.689Z,100940.20
2022-08-25T17:03:13.057Z,100941.80
2022-08-25T17:05:42.990Z,100940.00
2022-08-25T17:08:30.555Z,100943.80
2022-08-25T17:11:30.817Z,100941.20
2022-08-25T17:14:02.047Z,100946.40
2022-08-25T17:16:35.610Z,100948.40
2022-08-25T17:19:11.679Z,100946.20
2022-08-25T17:21:44.960Z,100945.40
2022-08-25T17:24:16.672Z,100948.80
2022-08-25T17:26:47.193Z,100951.40
2022-08-25T17:29:14.853Z,100953.20
2022-08-25T17:31:45.078Z,100954.60
2022-08-25T17:34:16.549Z,100961.80
2022-08-25T17:36:45.296Z,100963.80
2022-08-25T17:39:17.900Z,100961.00
2022-08-25T17:41:46.177Z,100967.80
2022-08-25T17:44:15.637Z,100964.20
2022-08-25T17:46:47.513Z,100967.20
2022-08-25T17:49:17.378Z,100968.60
2022-08-25T17:51:45.568Z,100964.00
2022-08-25T17:54:13.685Z,100965.40
2022-08-25T17:56:41.835Z,100970.00
2022-08-25T17:59:10.221Z,100966.80
2022-08-25T18:01:40.657Z,100973.20
2022-08-25T18:04:16.901Z,100968.40
2022-08-25T18:06:48.373Z,100975.40
2022-08-25T18:09:17.749Z,100973.40
2022-08-25T18:11:46.514Z,100971.00
2022-08-25T18:14:16.514Z,100977.60
2022-08-25T18:16:46.068Z,100977.40
2022-08-25T18:19:14.631Z,100976.60
2022-08-25T18:21:43.194Z,100974.40
2022-08-25T18:24:13.342Z,100973.20
2022-08-25T18:26:42.145Z,100973.80
2022-08-25T18:29:13.454Z,100976.40
2022-08-25T18:31:42.186Z,100975.80
2022-08-25T18:34:11.504Z,100976.60
2022-08-25T18:36:39.750Z,100978.00
2022-08-25T18:39:26.279Z,100977.20
2022-08-25T18:41:54.656Z,100980.40
2022-08-25T18:44:22.434Z,100980.80
2022-08-25T18:46:50.335Z,100979.00
2022-08-25T18:49:18.550Z,100985.20
2022-08-25T18:51:48.709Z,100981.20
2022-08-25T18:54:22.784Z,100982.60
2022-08-25T18:56:54.789Z,100981.20
2022-08-25T18:59:23.311Z,100981.80
2022-08-25T19:01:54.001Z,100981.40
2022-08-25T19:04:31.329Z,100983.20
2022-08-25T19:07:01.887Z,100985.00
2022-08-25T19:09:32.621Z,100985.60
2022-08-25T19:12:01.167Z,100987.20
2022-08-25T19:14:29.125Z,100991.60
2022-08-25T19:16:58.815Z,100997.20
2022-08-25T19:19:28.790Z,100994.40
2022-08-25T19:21:58.132Z,100994.80
2022-08-25T19:24:28.331Z,100996.80
2022-08-25T19:26:57.846Z,100994.00
2022-08-25T19:29:26.502Z,101000.40
2022-08-25T19:32:01.178Z,100996.40
2022-08-25T19:34:39.135Z,100995.60
2022-08-25T19:37:11.924Z,100998.80
2022-08-25T19:39:52.852Z,101001.00
2022-08-25T19:42:32.706Z,101003.60
2022-08-25T19:45:10.099Z,101008.40
2022-08-25T19:47:38.541Z,101005.00
2022-08-25T19:50:08.238Z,101005.60
2022-08-25T19:52:37.876Z,101007.40
2022-08-25T19:55:08.903Z,101012.00
2022-08-25T19:57:42.771Z,101012.00
2022-08-25T20:00:35.010Z,101018.40
2022-08-25T20:03:05.233Z,101020.20
2022-08-25T20:05:35.453Z,101020.80
2022-08-25T20:08:05.506Z,101016.20
2022-08-25T20:10:41.652Z,101018.40
2022-08-25T20:13:09.914Z,101020.40
2022-08-25T20:15:39.374Z,101024.00
2022-08-25T20:18:07.650Z,101017.80
2022-08-25T20:20:36.164Z,101016.00
2022-08-25T20:23:23.266Z,101016.40
2022-08-25T20:25:51.962Z,101015.60
2022-08-25T20:28:19.790Z,101017.00
2022-08-25T20:30:47.914Z,101018.80
2022-08-25T20:33:22.634Z,101017.00
2022-08-25T20:35:50.998Z,101022.60
2022-08-25T20:38:21.327Z,101031.00
2022-08-25T20:40:49.271Z,101028.20
2022-08-25T20:43:20.818Z,101034.60
2022-08-25T20:45:49.173Z,101028.00
2022-08-25T20:48:17.576Z,101033.00
2022-08-25T20:50:45.308Z,101037.20
2022-08-25T20:53:26.344Z,101034.80
2022-08-25T20:55:54.398Z,101032.80
2022-08-25T20:58:22.157Z,101038.80
2022-08-25T21:00:51.656Z,101037.60
2022-08-25T21:03:20.538Z,101039.60
2022-08-25T21:05:48.354Z,101039.00
2022-08-25T21:08:21.940Z,101040.00
2022-08-25T21:10:51.663Z,101040.00
2022-08-25T21:13:19.445Z,101039.00
2022-08-25T21:15:49.002Z,101039.20
2022-08-25T21:18:16.802Z,101042.20
2022-08-25T21:20:44.631Z,101044.80
2022-08-25T21:23:12.405Z,101054.80
2022-08-25T21:25:42.150Z,101047.80
2022-08-25T21:28:10.731Z,101052.20
2022-08-25T21:30:44.792Z,101055.40
2022-08-25T21:33:15.380Z,101053.00
2022-08-25T21:35:43.177Z,101053.20
2022-08-25T21:38:10.968Z,101053.40
2022-08-25T21:40:39.749Z,101050.00
2022-08-25T21:43:12.616Z,101046.20
2022-08-25T21:45:46.583Z,101050.00
2022-08-25T21:48:16.385Z,101046.00
2022-08-25T21:50:44.338Z,101046.60
2022-08-25T21:53:12.798Z,101051.20
2022-08-25T21:55:42.134Z,101049.20
2022-08-25T21:58:10.011Z,101051.40
2022-08-25T22:00:37.685Z,101054.00
2022-08-25T22:03:05.602Z,101058.60
2022-08-25T22:05:37.521Z,101060.80
2022-08-25T22:08:05.181Z,101055.80
2022-08-25T22:10:33.253Z,101059.00
2022-08-25T22:13:02.653Z,101058.00
2022-08-25T22:15:30.447Z,101057.40
2022-08-25T22:17:58.246Z,101062.00
2022-08-25T22:20:26.019Z,101055.00
2022-08-25T22:22:56.813Z,101056.80
2022-08-25T22:25:25.043Z,101057.60
2022-08-25T22:27:56.650Z,101055.60
2022-08-25T22:30:26.100Z,101060.80
2022-08-25T22:32:58.973Z,101063.00
2022-08-25T22:35:28.187Z,101066.40
2022-08-25T22:37:56.001Z,101072.80
2022-08-25T22:40:23.854Z,101069.00
2022-08-25T22:42:52.166Z,101066.40
2022-08-25T22:45:20.594Z,101065.60
2022-08-25T22:47:48.619Z,101069.40
2022-08-25T22:50:20.006Z,101073.00
2022-08-25T22:52:48.488Z,101071.80
2022-08-25T22:55:16.808Z,101072.00
2022-08-25T22:57:45.120Z,101071.20
2022-08-25T23:00:15.446Z,101069.20
2022-08-25T23:02:45.004Z,101068.20
2022-08-25T23:05:15.542Z,101067.80
2022-08-25T23:07:43.486Z,101070.80
2022-08-25T23:10:13.210Z,101067.60
2022-08-25T23:12:43.802Z,101068.20
2022-08-25T23:15:13.142Z,101065.60
2022-08-25T23:17:42.076Z,101062.20
2022-08-25T23:20:29.444Z,101067.60
2022-08-25T23:22:58.490Z,101062.20
2022-08-25T23:25:26.416Z,101064.20
2022-08-25T23:27:54.305Z,101065.20
2022-08-25T23:30:22.471Z,101064.60
2022-08-25T23:32:50.576Z,101067.40
2022-08-25T23:35:18.291Z,101064.40
2022-08-25T23:37:47.129Z,101066.00
2022-08-25T23:40:19.184Z,101066.40
2022-08-25T23:42:47.684Z,101068.20
2022-08-25T23:45:16.611Z,101071.40
2022-08-25T23:47:44.297Z,101075.40
2022-08-25T23:50:12.019Z,101073.80
2022-08-25T23:52:39.730Z,101073.00
2022-08-25T23:55:07.863Z,101072.20
2022-08-25T23:57:36.332Z,101071.00
